Time;durP1;ratioP1;P1;durP2;ratioP2;P2;SDS_P1;SDS_P2;PMS_P1;PMS_P2;Temp;Humidity;BMP_temperature;BMP_pressure;BME280_temperature;BME280_humidity;BME280_pressure;Samples;Min_cycle;Max_cycle;Signal;HPM_P1;HPM_P2
2021/01/20 00:01:47;;;;;;;72.55;50.13;;;;;;;1.53;64.12;101155.41;4947121;28;96973;-69
2021/01/20 00:04:14;;;;;;;66.60;48.35;;;;;;;1.47;64.80;101157.09;4943961;28;97201;-69
2021/01/20 00:06:40;;;;;;;57.90;47.08;;;;;;;1.55;64.28;101151.13;4944643;28;98611;-69
2021/01/20 00:09:07;;;;;;;62.45;47.72;;;;;;;1.61;64.25;101139.16;4944335;28;98691;-69
2021/01/20 00:11:34;;;;;;;64.55;50.58;;;;;;;1.65;64.62;101140.84;4929799;28;96555;-69
2021/01/20 00:14:00;;;;;;;61.22;46.92;;;;;;;1.61;65.01;101136.59;4945598;28;96623;-69
2021/01/20 00:16:27;;;;;;;65.95;48.88;;;;;;;1.63;64.74;101133.16;4948737;28;98725;-69
2021/01/20 00:18:53;;;;;;;71.32;48.83;;;;;;;1.62;64.53;101128.00;4950610;28;99030;-69
2021/01/20 00:21:20;;;;;;;71.88;49.83;;;;;;;1.45;65.21;101123.72;4953478;28;96499;-69
2021/01/20 00:23:47;;;;;;;64.25;48.85;;;;;;;1.45;65.42;101138.28;4946918;28;96779;-69
2021/01/20 00:26:13;;;;;;;67.72;47.38;;;;;;;1.43;65.10;101133.09;4948652;28;98581;-69
2021/01/20 00:28:42;;;;;;;68.38;48.60;;;;;;;1.23;65.86;101138.22;4949326;28;98903;-69
2021/01/20 00:31:09;;;;;;;71.70;52.08;;;;;;;1.34;64.88;101139.97;4945645;28;96784;-69
2021/01/20 00:33:35;;;;;;;67.75;52.42;;;;;;;1.47;64.29;101124.56;4936217;28;96661;-69
2021/01/20 00:36:02;;;;;;;73.78;53.13;;;;;;;1.47;64.54;101129.69;4949129;28;98560;-69
2021/01/20 00:38:29;;;;;;;72.03;51.00;;;;;;;1.43;64.67;101127.97;4953198;28;98493;-69
2021/01/20 00:40:55;;;;;;;65.22;44.40;;;;;;;1.53;63.95;101122.00;4952577;28;96667;-69
2021/01/20 00:43:22;;;;;;;68.93;49.45;;;;;;;1.53;64.14;101126.28;4952172;28;96762;-69
2021/01/20 00:45:48;;;;;;;65.70;46.83;;;;;;;1.62;63.97;101121.16;4952713;28;98944;-69
2021/01/20 00:48:15;;;;;;;63.25;44.92;;;;;;;1.81;63.31;101120.31;4945731;28;97512;-69
2021/01/20 00:50:42;;;;;;;60.72;43.10;;;;;;;1.57;64.53;101121.16;4932159;28;96678;-69
2021/01/20 00:53:09;;;;;;;60.10;42.78;;;;;;;1.72;64.74;101134.88;4914857;28;96778;-68
2021/01/20 00:55:36;;;;;;;58.20;42.05;;;;;;;1.81;63.93;101128.03;4933527;28;98748;-69
2021/01/20 00:58:02;;;;;;;56.85;41.88;;;;;;;1.79;64.46;101128.88;4914252;28;100572;-69
2021/01/20 01:00:29;;;;;;;54.35;40.50;;;;;;;1.81;64.43;101122.00;4932617;28;96901;-68
2021/01/20 01:02:56;;;;;;;56.67;42.75;;;;;;;1.88;64.43;101110.88;4931740;28;97004;-68
2021/01/20 01:05:23;;;;;;;55.92;42.25;;;;;;;1.60;65.60;101116.84;4953186;28;98730;-68
2021/01/20 01:07:55;;;;;;;60.70;42.05;;;;;;;1.64;65.54;101116.84;4950705;28;99875;-68
2021/01/20 01:10:22;;;;;;;55.50;44.10;;;;;;;1.64;64.95;101113.44;4914353;28;96705;-68
2021/01/20 01:13:01;;;;;;;61.40;46.05;;;;;;;1.45;66.12;101118.56;4947827;28;97018;-68
2021/01/20 01:15:31;;;;;;;63.75;46.28;;;;;;;1.27;66.21;101119.38;4934427;28;99898;-68
2021/01/20 01:17:58;;;;;;;57.45;45.03;;;;;;;1.09;66.94;101127.06;4933395;28;100470;-68
2021/01/20 01:20:25;;;;;;;63.10;45.83;;;;;;;1.36;66.38;101121.13;4934728;28;96976;-68
2021/01/20 01:22:56;;;;;;;66.63;44.97;;;;;;;1.41;66.06;101122.00;4929990;28;96933;-68
2021/01/20 01:25:23;;;;;;;71.32;47.45;;;;;;;1.60;65.49;101132.28;4930970;28;98545;-68
2021/01/20 01:27:50;;;;;;;67.97;49.05;;;;;;;1.51;66.22;101121.16;4942046;28;97467;-68
2021/01/20 01:30:19;;;;;;;65.05;46.55;;;;;;;1.29;66.83;101125.41;4948717;28;96956;-68
2021/01/20 01:32:45;;;;;;;63.10;45.30;;;;;;;1.53;66.27;101126.28;4913641;28;97069;-68
2021/01/20 01:35:23;;;;;;;58.95;42.45;;;;;;;1.75;66.21;101128.00;4914140;28;98935;-69
2021/01/20 01:37:59;;;;;;;62.92;44.42;;;;;;;1.70;66.43;101127.13;4916584;28;98330;-69
2021/01/20 01:40:39;;;;;;;59.13;41.38;;;;;;;1.76;66.13;101126.31;4915582;28;96528;-69
2021/01/20 01:43:28;;;;;;;61.58;45.38;;;;;;;1.63;66.75;101112.59;4932614;28;96605;-69
2021/01/20 01:46:24;;;;;;;54.55;40.75;;;;;;;1.82;66.18;101119.44;4937769;28;97287;-69
2021/01/20 01:49:26;;;;;;;54.05;40.67;;;;;;;1.95;66.24;101120.28;4923876;28;98255;-69
2021/01/20 01:51:55;;;;;;;56.33;40.60;;;;;;;1.81;66.71;101111.72;4913316;28;96829;-69
2021/01/20 01:54:37;;;;;;;52.50;37.95;;;;;;;1.91;66.56;101117.72;4932368;28;96746;-69
2021/01/20 01:57:14;;;;;;;56.92;38.60;;;;;;;1.92;66.80;101109.13;4899828;28;99646;-69
2021/01/20 01:59:47;;;;;;;50.95;38.13;;;;;;;1.75;67.57;101107.44;4931690;28;100206;-69
2021/01/20 02:02:30;;;;;;;50.40;37.53;;;;;;;1.82;67.64;101103.16;4944070;28;96641;-69
2021/01/20 02:04:58;;;;;;;49.40;37.42;;;;;;;1.87;67.66;101098.88;4949682;28;96795;-69
2021/01/20 02:07:29;;;;;;;50.70;37.80;;;;;;;1.95;67.47;101092.00;4948009;28;100282;-69
2021/01/20 02:09:56;;;;;;;50.75;35.78;;;;;;;1.89;67.96;101094.59;4917099;28;100021;-68
2021/01/20 02:12:57;;;;;;;49.88;37.97;;;;;;;2.00;68.11;101090.28;4914285;28;96694;-68
2021/01/20 02:15:58;;;;;;;52.13;37.83;;;;;;;2.18;67.83;101088.53;4927987;28;96604;-69
2021/01/20 02:18:27;;;;;;;52.20;38.38;;;;;;;2.26;67.45;101076.53;4920044;28;100084;-69
2021/01/20 02:21:33;;;;;;;49.75;34.55;;;;;;;2.29;68.08;101079.06;4920538;28;99866;-69
2021/01/20 02:24:19;;;;;;;47.60;34.78;;;;;;;2.15;68.36;101080.84;4900978;28;96863;-69
2021/01/20 02:27:11;;;;;;;53.47;37.08;;;;;;;2.14;69.08;101079.97;4904708;28;97053;-69
2021/01/20 02:30:09;;;;;;;52.15;38.35;;;;;;;2.44;67.69;101089.31;4917122;28;100387;-69
2021/01/20 02:32:58;;;;;;;43.70;33.83;;;;;;;2.52;66.99;101072.16;4902874;28;97108;-69
2021/01/20 02:35:45;;;;;;;53.85;35.90;;;;;;;2.67;65.94;101078.97;4906009;28;96742;-69
2021/01/20 02:38:11;;;;;;;47.63;36.75;;;;;;;2.59;65.90;101073.81;4950093;28;97186;-69
2021/01/20 02:41:01;;;;;;;53.40;40.03;;;;;;;2.68;65.80;101077.22;4919582;28;98206;-69
2021/01/20 02:44:04;;;;;;;51.42;38.10;;;;;;;2.71;65.65;101082.34;4870982;28;97215;-69
2021/01/20 02:46:45;;;;;;;60.40;42.42;;;;;;;2.52;66.88;101073.88;4941925;28;96899;-68
2021/01/20 02:49:22;;;;;;;58.45;43.10;;;;;;;2.38;67.83;101079.03;4950399;28;97073;-68
2021/01/20 02:52:11;;;;;;;58.00;43.72;;;;;;;2.28;67.98;101064.50;4948683;28;99863;-69
2021/01/20 02:55:01;;;;;;;58.17;41.30;;;;;;;2.42;68.06;101055.03;4936702;28;98419;-68
2021/01/20 02:57:47;;;;;;;58.65;41.20;;;;;;;2.46;68.00;101061.03;4936071;28;96638;-69
2021/01/20 03:00:18;;;;;;;58.40;41.25;;;;;;;2.51;68.22;101069.59;4947414;28;97834;-69
2021/01/20 03:03:06;;;;;;;58.05;43.10;;;;;;;2.63;67.75;101065.22;4922788;28;97217;-69
2021/01/20 03:05:33;;;;;;;54.38;39.55;;;;;;;2.79;67.37;101053.13;4950595;28;97790;-69
2021/01/20 03:08:00;;;;;;;59.28;42.78;;;;;;;2.65;67.85;101052.34;4934037;28;96865;-69
2021/01/20 03:10:26;;;;;;;55.47;41.78;;;;;;;2.58;68.43;101056.66;4926772;28;96680;-69
2021/01/20 03:12:53;;;;;;;59.63;42.97;;;;;;;2.68;68.36;101048.91;4931531;28;97480;-69
2021/01/20 03:15:26;;;;;;;52.95;40.22;;;;;;;2.71;68.36;101047.16;4949521;28;97255;-68
2021/01/20 03:17:53;;;;;;;52.60;43.03;;;;;;;2.78;68.19;101050.59;4932580;28;96907;-68
2021/01/20 03:20:19;;;;;;;48.63;40.65;;;;;;;2.82;68.31;101055.72;4914225;28;97871;-68
2021/01/20 03:22:46;;;;;;;54.20;39.35;;;;;;;2.92;68.06;101046.19;4943941;28;97392;-67
2021/01/20 03:25:12;;;;;;;54.28;37.83;;;;;;;2.87;68.16;101041.06;4949197;28;97587;-69
2021/01/20 03:27:39;;;;;;;52.65;41.50;;;;;;;2.83;68.79;101056.56;4935686;28;96758;-69
2021/01/20 03:30:06;;;;;;;48.42;39.22;;;;;;;2.79;68.69;101045.41;4932014;28;96602;-68
2021/01/20 03:32:32;;;;;;;52.60;40.35;;;;;;;2.78;69.00;101040.28;4929493;28;97219;-68
2021/01/20 03:34:59;;;;;;;49.58;37.10;;;;;;;2.78;69.31;101054.00;4929604;28;97228;-68
2021/01/20 03:37:26;;;;;;;47.63;37.15;;;;;;;2.87;69.16;101050.50;4930991;28;96702;-68
2021/01/20 03:39:52;;;;;;;53.47;43.10;;;;;;;2.31;69.98;101051.63;4930614;28;96882;-68
2021/01/20 03:42:18;;;;;;;57.60;41.92;;;;;;;2.23;70.44;101048.22;4928934;28;97321;-68
2021/01/20 03:44:45;;;;;;;58.08;43.30;;;;;;;2.45;69.52;101049.88;4929546;28;97147;-69
2021/01/20 03:47:11;;;;;;;56.22;43.03;;;;;;;2.29;69.91;101037.91;4929613;28;96776;-69
2021/01/20 03:49:38;;;;;;;55.55;44.63;;;;;;;2.45;69.57;101044.72;4947415;28;96756;-69
2021/01/20 03:52:04;;;;;;;56.90;45.25;;;;;;;2.47;68.95;101037.00;4949464;28;97412;-70
2021/01/20 03:54:31;;;;;;;64.43;46.72;;;;;;;2.55;67.92;101033.50;4934439;28;97223;-69
2021/01/20 03:56:57;;;;;;;64.53;48.10;;;;;;;2.43;68.28;101032.72;4953127;28;96956;-69
2021/01/20 03:59:23;;;;;;;70.32;46.70;;;;;;;2.22;69.21;101041.38;4952736;28;96714;-68
2021/01/20 04:01:50;;;;;;;59.33;44.80;;;;;;;2.25;68.61;101037.06;4952556;28;97260;-69
2021/01/20 04:04:17;;;;;;;66.28;47.38;;;;;;;2.01;69.62;101040.56;4946814;28;98677;-69
2021/01/20 04:06:45;;;;;;;65.03;46.20;;;;;;;2.21;68.98;101042.22;4951955;28;97114;-69
2021/01/20 04:09:11;;;;;;;69.40;50.53;;;;;;;2.21;69.50;101037.09;4933876;28;96629;-71
2021/01/20 04:11:38;;;;;;;60.97;46.55;;;;;;;2.28;68.95;101036.19;4951687;28;98617;-71
2021/01/20 04:14:04;;;;;;;67.53;50.78;;;;;;;2.25;68.96;101018.22;4951604;28;98498;-71
2021/01/20 04:16:31;;;;;;;62.95;45.42;;;;;;;2.46;68.43;101014.69;4953010;28;96869;-71
2021/01/20 04:18:57;;;;;;;65.75;49.72;;;;;;;2.37;68.99;101020.72;4934721;28;96930;-71
2021/01/20 04:21:24;;;;;;;55.90;45.05;;;;;;;2.36;69.12;101014.72;4952456;28;98770;-71
2021/01/20 04:23:50;;;;;;;67.72;48.83;;;;;;;2.56;68.27;101022.38;4950439;28;98728;-71
2021/01/20 04:26:17;;;;;;;63.65;47.42;;;;;;;2.36;68.56;101024.19;4952823;28;96655;-71
2021/01/20 04:28:44;;;;;;;68.60;50.53;;;;;;;1.93;69.25;101024.31;4952453;28;96978;-71
2021/01/20 04:31:10;;;;;;;62.35;47.70;;;;;;;2.21;69.45;101021.66;4932728;28;98526;-71
2021/01/20 04:33:37;;;;;;;63.95;46.78;;;;;;;2.25;68.94;101020.78;4938998;28;98515;-71
2021/01/20 04:36:03;;;;;;;67.35;51.53;;;;;;;2.27;69.08;101029.34;4950021;28;97163;-71
2021/01/20 04:38:30;;;;;;;65.85;48.65;;;;;;;2.28;68.73;101029.31;4941058;28;96941;-71
2021/01/20 04:40:57;;;;;;;69.93;43.50;;;;;;;2.31;68.53;101025.91;4947456;28;98558;-70
2021/01/20 04:43:24;;;;;;;64.18;47.38;;;;;;;2.27;68.38;101029.34;4945998;28;99218;-69
2021/01/20 04:45:52;;;;;;;64.28;47.10;;;;;;;2.02;69.19;101034.53;4950475;28;96767;-69
2021/01/20 04:48:19;;;;;;;66.28;47.60;;;;;;;1.91;69.34;101028.56;4951970;28;96815;-69
2021/01/20 04:50:47;;;;;;;70.07;49.42;;;;;;;2.14;69.08;101043.97;4950311;28;98727;-70
2021/01/20 04:53:14;;;;;;;66.13;46.05;;;;;;;2.19;69.06;101037.09;4953256;28;98621;-70
2021/01/20 04:55:44;;;;;;;64.70;46.88;;;;;;;2.45;68.24;101034.44;4950959;28;99694;-70
2021/01/20 04:58:11;;;;;;;59.20;46.08;;;;;;;2.55;68.19;101030.09;4952230;28;96670;-68
2021/01/20 05:00:38;;;;;;;65.70;48.25;;;;;;;2.36;68.75;101024.19;4932399;28;98528;-70
2021/01/20 05:03:05;;;;;;;68.60;48.78;;;;;;;2.24;69.17;101019.09;4951578;28;98526;-70
2021/01/20 05:05:33;;;;;;;70.95;49.75;;;;;;;2.30;69.60;101021.63;4916685;28;96545;-70
2021/01/20 05:08:01;;;;;;;66.38;45.95;;;;;;;2.58;68.17;101015.50;4952727;28;97036;-72
2021/01/20 05:10:27;;;;;;;75.97;49.88;;;;;;;2.44;68.83;101016.41;4952067;28;98558;-70
2021/01/20 05:12:54;;;;;;;70.35;48.20;;;;;;;2.51;68.99;101018.97;4952744;28;98588;-69
2021/01/20 05:15:31;;;;;;;68.35;48.65;;;;;;;2.68;68.10;101018.88;4932262;28;96556;-69
2021/01/20 05:18:05;;;;;;;66.45;48.38;;;;;;;2.85;67.31;101019.63;4938893;28;99070;-68
2021/01/20 05:20:36;;;;;;;65.55;49.60;;;;;;;2.93;67.24;101017.03;4943778;28;100475;-68
2021/01/20 05:23:09;;;;;;;71.63;50.33;;;;;;;2.77;67.91;101008.53;4930051;28;98562;-69
2021/01/20 05:25:43;;;;;;;63.95;46.72;;;;;;;2.73;67.95;101014.56;4931022;28;96597;-69
2021/01/20 05:28:18;;;;;;;67.30;48.55;;;;;;;2.52;68.88;101012.94;4946342;28;96640;-70
2021/01/20 05:30:48;;;;;;;67.47;49.75;;;;;;;2.56;68.85;101004.34;4946489;28;98698;-70
2021/01/20 05:33:16;;;;;;;70.72;53.03;;;;;;;2.73;68.42;101011.97;4932599;28;98561;-70
2021/01/20 05:35:44;;;;;;;74.55;49.10;;;;;;;2.61;68.56;101020.63;4934525;28;96760;-70
2021/01/20 05:38:10;;;;;;;64.75;47.17;;;;;;;2.41;69.78;101027.59;4950772;28;97032;-70
2021/01/20 05:40:37;;;;;;;63.55;49.72;;;;;;;2.39;69.72;101015.56;4938050;28;98255;-70
2021/01/20 05:43:04;;;;;;;69.97;49.95;;;;;;;2.42;70.18;101019.00;4932174;28;100241;-71
2021/01/20 05:45:31;;;;;;;62.47;47.83;;;;;;;2.62;68.91;101022.34;4924016;28;96527;-70
2021/01/20 05:48:08;;;;;;;73.13;48.75;;;;;;;2.53;69.21;101017.22;4938394;28;96723;-71
2021/01/20 05:50:36;;;;;;;72.18;49.92;;;;;;;2.63;69.17;101013.75;4930425;28;98608;-70
2021/01/20 05:53:04;;;;;;;64.60;46.95;;;;;;;2.65;68.86;101015.44;4943998;28;98618;-70
2021/01/20 05:55:31;;;;;;;72.97;48.33;;;;;;;2.55;69.52;101010.34;4932725;28;97232;-70
2021/01/20 05:57:58;;;;;;;69.60;50.58;;;;;;;2.68;68.64;101006.00;4950634;28;96752;-70
2021/01/20 06:00:25;;;;;;;69.60;52.10;;;;;;;2.77;68.11;101023.97;4929852;28;98557;-70
2021/01/20 06:02:56;;;;;;;69.60;51.40;;;;;;;2.52;68.83;101035.25;4932989;28;98634;-70
2021/01/20 06:05:26;;;;;;;77.93;55.92;;;;;;;2.62;68.09;101042.94;4950850;28;96888;-70
2021/01/20 06:07:53;;;;;;;80.13;54.35;;;;;;;2.62;68.26;101045.50;4950566;28;96568;-71
2021/01/20 06:10:20;;;;;;;71.30;52.75;;;;;;;2.18;69.69;101049.94;4951135;28;98551;-71
2021/01/20 06:12:48;;;;;;;66.63;50.38;;;;;;;2.42;69.17;101052.44;4948466;28;98526;-70
2021/01/20 06:15:14;;;;;;;74.03;49.97;;;;;;;2.13;69.46;101049.97;4942802;28;96768;-70
2021/01/20 06:17:42;;;;;;;72.18;48.85;;;;;;;2.24;69.46;101045.66;4928837;28;98027;-70
2021/01/20 06:20:10;;;;;;;72.28;51.72;;;;;;;2.09;69.75;101051.69;4931115;28;98570;-70
2021/01/20 06:22:45;;;;;;;74.07;54.47;;;;;;;2.10;69.13;101055.97;4930658;28;98934;-70
2021/01/20 06:25:32;;;;;;;71.38;52.97;;;;;;;2.21;69.08;101049.94;4934543;28;96677;-71
2021/01/20 06:28:08;;;;;;;76.07;53.22;;;;;;;2.29;68.56;101056.78;4937356;28;97041;-70
2021/01/20 06:30:42;;;;;;;65.70;48.22;;;;;;;2.09;69.03;101051.69;4951024;28;97675;-69
2021/01/20 06:33:13;;;;;;;65.80;49.40;;;;;;;2.17;68.83;101040.53;4919087;28;98793;-71
2021/01/20 06:35:44;;;;;;;70.75;50.25;;;;;;;2.13;69.75;101052.56;4949192;28;97806;-70
2021/01/20 06:38:29;;;;;;;72.68;54.35;;;;;;;2.34;69.17;101046.47;4947565;28;97526;-72
2021/01/20 06:41:01;;;;;;;80.97;54.35;;;;;;;2.27;68.69;101055.91;4950617;28;98635;-71
2021/01/20 06:43:43;;;;;;;78.97;54.10;;;;;;;2.42;68.80;101078.19;4949720;28;98734;-70
2021/01/20 06:46:13;;;;;;;77.93;52.70;;;;;;;2.35;68.59;101074.78;4943440;28;96641;-70
2021/01/20 06:48:55;;;;;;;76.00;53.10;;;;;;;2.19;69.50;101088.53;4945998;28;96957;-68
2021/01/20 06:51:23;;;;;;;73.65;53.60;;;;;;;2.43;68.91;101081.59;4944099;28;98736;-69
2021/01/20 06:54:01;;;;;;;77.57;55.67;;;;;;;2.27;69.22;101086.78;4944399;28;98411;-69
2021/01/20 06:56:44;;;;;;;67.72;50.67;;;;;;;2.52;68.34;101092.72;4948865;28;96696;-68
2021/01/20 06:59:23;;;;;;;67.40;47.55;;;;;;;2.47;67.91;101091.03;4950550;28;96778;-68
2021/01/20 07:02:02;;;;;;;71.05;52.17;;;;;;;2.54;68.48;101090.16;4950054;28;98815;-67
2021/01/20 07:04:38;;;;;;;78.00;53.70;;;;;;;2.62;68.36;101084.13;4947676;28;97478;-67
2021/01/20 07:07:07;;;;;;;75.15;53.38;;;;;;;2.70;67.96;101090.94;4950094;28;96989;-67
2021/01/20 07:10:03;;;;;;;67.32;47.60;;;;;;;2.60;68.40;101093.53;4948304;28;96750;-67
2021/01/20 07:12:29;;;;;;;64.53;45.28;;;;;;;2.69;68.01;101087.50;4926017;28;98497;-65
2021/01/20 07:14:56;;;;;;;73.85;51.30;;;;;;;2.76;67.86;101091.75;4948239;28;98528;-67
2021/01/20 07:17:23;;;;;;;67.00;48.20;;;;;;;2.69;68.42;101099.53;4948017;28;96597;-64
2021/01/20 07:19:51;;;;;;;72.03;53.20;;;;;;;2.75;68.27;101104.66;4950201;28;96713;-66
2021/01/20 07:22:17;;;;;;;75.63;51.78;;;;;;;2.73;68.22;101096.09;4949492;28;98660;-66
2021/01/20 07:24:44;;;;;;;70.93;53.38;;;;;;;2.82;67.81;101108.91;4944945;28;98497;-63
2021/01/20 07:27:11;;;;;;;74.78;53.83;;;;;;;2.67;68.59;101104.69;4943748;28;96539;-65
2021/01/20 07:29:39;;;;;;;74.15;52.78;;;;;;;2.73;68.34;101109.81;4942243;28;96559;-65
2021/01/20 07:32:08;;;;;;;79.93;53.35;;;;;;;2.91;68.21;101119.16;4947522;28;98722;-68
2021/01/20 07:34:39;;;;;;;80.03;57.65;;;;;;;2.86;68.33;101120.91;4949512;28;98597;-68
2021/01/20 07:37:13;;;;;;;78.72;52.90;;;;;;;2.87;68.50;101130.34;4933498;28;96656;-67
2021/01/20 07:39:40;;;;;;;81.20;54.95;;;;;;;2.91;68.06;101123.47;4950488;28;96591;-70
2021/01/20 07:42:07;;;;;;;89.85;54.90;;;;;;;2.99;68.41;101125.16;4950228;28;98635;-69
2021/01/20 07:44:36;;;;;;;90.57;60.40;;;;;;;2.99;68.42;101125.16;4950535;28;98604;-70
2021/01/20 07:47:04;;;;;;;88.15;63.53;;;;;;;2.96;68.98;101143.19;4949818;28;96583;-70
2021/01/20 07:49:31;;;;;;;105.32;63.13;;;;;;;2.95;68.75;101146.63;4940560;28;96624;-71
2021/01/20 07:52:07;;;;;;;98.70;64.80;;;;;;;2.83;69.10;101146.69;4942897;28;98611;-69
2021/01/20 07:54:41;;;;;;;101.15;63.60;;;;;;;3.01;68.85;101145.75;4942920;28;98486;-68
2021/01/20 07:57:09;;;;;;;91.93;60.45;;;;;;;3.19;68.30;101149.94;4943663;28;97088;-68
2021/01/20 07:59:36;;;;;;;106.28;65.80;;;;;;;3.10;68.36;101138.84;4927404;28;96871;-67
2021/01/20 08:02:12;;;;;;;107.03;64.78;;;;;;;2.97;68.66;101139.75;4942517;28;98488;-67
2021/01/20 08:04:39;;;;;;;96.05;61.90;;;;;;;3.06;68.15;101134.56;4944058;28;97604;-66
2021/01/20 08:07:07;;;;;;;105.70;67.65;;;;;;;3.13;68.42;101150.81;4943180;28;96890;-65
2021/01/20 08:09:39;;;;;;;109.45;66.43;;;;;;;3.05;68.67;101142.31;4948286;28;96686;-69
2021/01/20 08:12:07;;;;;;;110.97;64.45;;;;;;;3.01;69.27;101153.47;4945978;28;98708;-69
2021/01/20 08:14:37;;;;;;;104.50;66.97;;;;;;;3.09;68.77;101155.16;4916294;28;98967;-69
2021/01/20 08:17:04;;;;;;;101.45;62.75;;;;;;;3.07;69.25;101153.44;4928719;28;96592;-69
2021/01/20 08:19:31;;;;;;;90.43;59.35;;;;;;;3.20;68.98;101160.25;4917035;28;96605;-69
2021/01/20 08:21:58;;;;;;;77.15;53.67;;;;;;;3.20;69.21;101155.09;4945602;28;98553;-69
2021/01/20 08:24:24;;;;;;;86.38;55.15;;;;;;;3.31;68.35;101161.06;4925681;28;98476;-69
2021/01/20 08:26:58;;;;;;;91.60;59.75;;;;;;;3.25;68.84;101168.81;4929144;28;97025;-69
2021/01/20 08:29:25;;;;;;;83.47;57.80;;;;;;;3.03;68.77;101170.63;4928468;28;96822;-68
2021/01/20 08:32:11;;;;;;;80.75;56.88;;;;;;;3.02;69.22;101179.22;4928511;28;98635;-71
2021/01/20 08:34:39;;;;;;;86.97;55.10;;;;;;;3.17;68.93;101174.88;4927156;28;98532;-68
2021/01/20 08:37:08;;;;;;;87.25;57.17;;;;;;;3.41;68.59;101174.75;4914804;28;97011;-70
2021/01/20 08:39:37;;;;;;;85.05;56.35;;;;;;;3.48;68.05;101166.09;4922740;28;97333;-69
2021/01/20 08:42:21;;;;;;;82.20;56.35;;;;;;;3.31;68.41;101160.19;4920927;28;98598;-69
2021/01/20 08:45:06;;;;;;;79.13;56.15;;;;;;;3.39;68.85;101166.16;4925432;28;98620;-68
2021/01/20 08:47:55;;;;;;;87.82;57.28;;;;;;;3.51;68.48;101160.06;4926815;28;96465;-69
2021/01/20 08:50:38;;;;;;;87.05;57.40;;;;;;;3.57;68.40;101155.75;4917438;28;97113;-70
2021/01/20 08:53:34;;;;;;;75.60;55.55;;;;;;;3.84;68.04;101154.69;4925501;28;98560;-69
2021/01/20 08:56:02;;;;;;;79.97;55.17;;;;;;;3.52;68.12;101157.50;4904111;28;98783;-69
2021/01/20 08:58:34;;;;;;;84.10;58.00;;;;;;;3.61;68.51;101153.97;4920670;28;98486;-68
2021/01/20 09:01:29;;;;;;;80.13;55.67;;;;;;;3.55;67.82;101151.44;4931884;28;97218;-69
2021/01/20 09:04:02;;;;;;;89.07;56.22;;;;;;;3.70;66.89;101155.66;4931725;28;98413;-69
2021/01/20 09:06:29;;;;;;;77.63;53.70;;;;;;;3.37;68.34;101160.16;4931014;28;98606;-69
2021/01/20 09:08:58;;;;;;;85.22;58.40;;;;;;;3.53;67.99;101177.25;4929793;28;96827;-68
2021/01/20 09:11:25;;;;;;;84.40;57.08;;;;;;;3.73;67.31;101176.25;4921692;28;97010;-69
2021/01/20 09:13:55;;;;;;;80.72;54.80;;;;;;;3.61;67.62;101174.59;4930889;28;98636;-68
2021/01/20 09:16:26;;;;;;;80.45;55.95;;;;;;;3.47;68.11;101179.88;4919990;28;98539;-68
2021/01/20 09:18:52;;;;;;;82.30;55.28;;;;;;;3.18;68.43;101172.28;4912049;28;96684;-69
2021/01/20 09:21:19;;;;;;;81.68;55.63;;;;;;;3.19;68.92;101186.00;4912393;28;97055;-69
2021/01/20 09:23:46;;;;;;;83.47;55.47;;;;;;;3.27;68.89;101189.41;4934853;28;98743;-69
2021/01/20 09:26:15;;;;;;;80.80;55.53;;;;;;;2.91;69.74;101186.13;4910142;28;98538;-69
2021/01/20 09:28:41;;;;;;;83.68;56.17;;;;;;;3.09;69.13;101173.19;4911792;28;96777;-69
2021/01/20 09:31:08;;;;;;;75.93;54.10;;;;;;;3.20;69.39;101172.28;4913217;28;96599;-69
2021/01/20 09:33:35;;;;;;;74.88;52.75;;;;;;;3.34;69.11;101168.75;4911461;28;98229;-70
2021/01/20 09:36:02;;;;;;;83.50;57.17;;;;;;;3.16;69.61;101179.16;4911662;28;98653;-68
2021/01/20 09:38:28;;;;;;;82.70;55.15;;;;;;;3.26;69.85;101180.84;4910335;28;97234;-68
2021/01/20 09:40:55;;;;;;;78.70;55.22;;;;;;;3.36;69.35;101191.97;4912594;28;96863;-69
2021/01/20 09:43:23;;;;;;;80.15;53.28;;;;;;;3.42;69.21;101184.19;4911445;28;98607;-68
2021/01/20 09:45:50;;;;;;;81.82;55.13;;;;;;;3.47;69.60;101174.72;4903551;28;98493;-68
2021/01/20 09:48:16;;;;;;;80.05;56.38;;;;;;;3.48;69.00;101171.25;4905371;28;97092;-69
2021/01/20 09:50:46;;;;;;;74.72;54.83;;;;;;;3.61;69.08;101165.16;4910207;28;96913;-68
2021/01/20 09:53:13;;;;;;;82.40;53.53;;;;;;;3.78;68.08;101166.75;4910328;28;98709;-69
2021/01/20 09:55:39;;;;;;;78.93;54.00;;;;;;;3.79;68.05;101171.91;4910750;28;98497;-69
2021/01/20 09:58:06;;;;;;;74.03;54.75;;;;;;;3.85;68.71;101173.59;4907465;28;97084;-68
2021/01/20 10:00:35;;;;;;;77.18;54.13;;;;;;;3.92;68.59;101172.66;4906434;28;97157;-69
2021/01/20 10:03:04;;;;;;;82.00;57.03;;;;;;;3.92;68.94;101172.66;4906194;28;98508;-69
2021/01/20 10:05:34;;;;;;;83.88;56.95;;;;;;;3.84;69.19;101170.16;4907847;28;98650;-68
2021/01/20 10:08:00;;;;;;;75.78;53.15;;;;;;;4.02;68.75;101169.16;4909889;28;96683;-69
2021/01/20 10:10:27;;;;;;;74.72;54.17;;;;;;;3.91;68.94;101166.66;4891936;28;100103;-69
2021/01/20 10:12:54;;;;;;;88.05;56.30;;;;;;;3.93;68.89;101171.78;4889450;28;98870;-68
2021/01/20 10:15:21;;;;;;;76.32;54.78;;;;;;;3.81;69.61;101170.16;4904836;28;98614;-69
2021/01/20 10:17:52;;;;;;;82.78;56.90;;;;;;;3.83;69.64;101167.56;4911340;28;96589;-69
2021/01/20 10:20:19;;;;;;;92.90;58.75;;;;;;;3.92;69.38;101154.59;4910118;28;97829;-70
2021/01/20 10:22:46;;;;;;;84.25;58.45;;;;;;;4.05;69.23;101155.34;4925295;28;98390;-69
2021/01/20 10:25:13;;;;;;;77.68;56.35;;;;;;;4.09;69.08;101141.56;4929675;28;98605;-70
2021/01/20 10:27:40;;;;;;;75.97;54.42;;;;;;;4.13;68.99;101136.34;4948854;28;96816;-70
2021/01/20 10:30:07;;;;;;;83.43;57.13;;;;;;;4.20;69.23;101138.00;4939243;28;96791;-69
2021/01/20 10:32:34;;;;;;;81.10;59.42;;;;;;;4.20;69.32;101143.16;4945120;28;98687;-70
2021/01/20 10:35:01;;;;;;;78.63;57.03;;;;;;;4.24;69.39;101135.41;4947565;28;98505;-69
2021/01/20 10:37:28;;;;;;;80.85;56.30;;;;;;;4.32;69.24;101141.38;4949414;28;96903;-70
2021/01/20 10:39:58;;;;;;;83.43;53.35;;;;;;;4.46;68.16;101136.88;4942368;28;97204;-70
2021/01/20 10:42:24;;;;;;;96.22;55.67;;;;;;;4.45;68.38;101136.03;4934815;28;98240;-70
2021/01/20 10:44:51;;;;;;;97.50;57.83;;;;;;;4.44;68.08;101130.91;4930782;28;98902;-70
2021/01/20 10:47:18;;;;;;;79.57;57.90;;;;;;;4.42;68.37;101127.47;4946357;28;97151;-69
2021/01/20 10:49:45;;;;;;;85.13;57.25;;;;;;;4.54;68.21;101118.75;4949267;28;96814;-69
2021/01/20 10:52:11;;;;;;;76.03;59.35;;;;;;;4.45;68.61;101123.13;4942331;28;98636;-71
2021/01/20 10:54:38;;;;;;;73.32;52.95;;;;;;;4.57;67.95;101116.97;4927547;28;98748;-69
2021/01/20 10:57:05;;;;;;;88.20;64.43;;;;;;;4.50;67.67;101110.19;4929034;28;97990;-73
2021/01/20 10:59:41;;;;;;;86.78;59.85;;;;;;;4.64;66.83;101103.13;4927462;28;96606;-75
2021/01/20 11:02:09;;;;;;;85.50;62.10;;;;;;;4.40;68.16;101108.56;4929285;28;97590;-74
2021/01/20 11:04:36;;;;;;;84.68;59.55;;;;;;;4.57;67.15;101108.38;4938833;28;98502;-74
2021/01/20 11:07:02;;;;;;;78.10;57.05;;;;;;;4.46;68.14;101098.16;4926609;28;96940;-74
2021/01/20 11:09:30;;;;;;;79.43;58.65;;;;;;;4.54;67.57;101101.53;4928082;28;97411;-74
2021/01/20 11:11:57;;;;;;;76.75;56.55;;;;;;;4.59;67.78;101088.56;4928410;28;98950;-73
2021/01/20 11:14:29;;;;;;;80.40;57.70;;;;;;;4.70;67.34;101097.03;4927595;28;99256;-73
2021/01/20 11:16:56;;;;;;;77.75;58.88;;;;;;;4.64;67.79;101107.44;4930800;28;97069;-73
2021/01/20 11:19:23;;;;;;;74.13;55.33;;;;;;;4.69;67.93;101101.34;4912298;28;96839;-73
2021/01/20 11:21:53;;;;;;;86.45;61.10;;;;;;;4.32;68.71;101084.56;4938269;28;98554;-73
2021/01/20 11:24:22;;;;;;;82.32;58.53;;;;;;;4.40;68.27;101087.91;4948567;28;98735;-72
2021/01/20 11:26:49;;;;;;;85.18;60.40;;;;;;;4.48;68.17;101096.44;4950337;28;96961;-69
2021/01/20 11:29:19;;;;;;;73.50;56.25;;;;;;;4.59;68.03;101081.66;4932873;28;97120;-71
2021/01/20 11:31:46;;;;;;;76.25;57.05;;;;;;;4.73;67.82;101074.59;4929440;28;98535;-73
2021/01/20 11:34:13;;;;;;;81.55;56.80;;;;;;;4.63;68.36;101075.56;4929307;28;98773;-72